LFMT/MPL METAR and TAF weather

Enter ICAO airport designator
Station Type Date Time Source
LFMT METAR 2019/04/24 22:30 UTC NOAA

LFMT 242230Z AUTO 15029KT CAVOK 15/11 Q1010 NOSIG


Station Type Date Time Source
LFMT Decoded METAR 2019/04/24 22:30 UTC NOAA

Montpellier, France (LFMT) 43-35N 003-58E 6M
Apr 24, 2019 - 06:30 PM EDT / 2019.04.24 2230 UTC
Wind: from the SSE (150 degrees) at 33 MPH (29 KT):0
Visibility: greater than 7 mile(s):0
Temperature: 59 F (15 C)
Dew Point: 51 F (11 C)
Relative Humidity: 76%
Pressure (altimeter): 29.83 in. Hg (1010 hPa)
ob: LFMT 242230Z AUTO 15029KT CAVOK 15/11 Q1010 NOSIG
cycle: 22

Station Type Date Time Source
LFMT TAF 2019/04/24 21:21 UTC NOAA

TAF LFMT 242000Z 2421/2521 16020KT CAVOK
BECMG 2501/2503 15023G35KT 8000 -SHRA BKN013 PROB30
TEMPO 2513/2520 14025G45KT

Example: see airport list